createdAt,value
2023-04-18T00:00:48.563Z,96997.94
2023-04-18T00:03:16.897Z,96995.25
2023-04-18T00:05:44.871Z,97004.38
2023-04-18T00:08:11.361Z,96998.91
2023-04-18T00:10:38.856Z,96997.41
2023-04-18T00:13:07.701Z,96994.94
2023-04-18T00:15:43.840Z,96994.94
2023-04-18T00:18:12.856Z,96995.91
2023-04-18T00:20:39.274Z,97000.50
2023-04-18T00:23:08.187Z,96991.78
2023-04-18T00:25:36.760Z,96986.03
2023-04-18T00:28:03.464Z,96987.31
2023-04-18T00:30:29.980Z,96988.13
2023-04-18T00:32:56.524Z,96981.75
2023-04-18T00:35:23.056Z,96984.91
2023-04-18T00:37:49.520Z,96986.63
2023-04-18T00:40:15.985Z,96990.13
2023-04-18T00:42:42.381Z,96996.81
2023-04-18T00:45:08.855Z,96996.19
2023-04-18T00:47:36.492Z,96999.56
2023-04-18T00:50:02.933Z,96997.59
2023-04-18T00:52:30.020Z,96995.50
2023-04-18T00:54:56.852Z,96997.59
2023-04-18T00:57:23.269Z,97001.97
2023-04-18T00:59:50.576Z,96993.25
2023-04-18T01:02:17.191Z,96996.56
2023-04-18T01:04:43.837Z,96997.44
2023-04-18T01:07:10.371Z,96993.75
2023-04-18T01:09:36.856Z,96994.59
2023-04-18T01:12:03.314Z,96991.72
2023-04-18T01:14:29.803Z,96990.09
2023-04-18T01:16:56.605Z,96989.25
2023-04-18T01:19:23.328Z,96986.59
2023-04-18T01:21:49.785Z,96993.66
2023-04-18T01:24:19.328Z,96993.06
2023-04-18T01:26:48.150Z,96991.19
2023-04-18T01:29:38.890Z,96988.88
2023-04-18T01:32:07.977Z,96992.41
2023-04-18T01:34:36.938Z,96993.66
2023-04-18T01:39:43.633Z,96993.69
2023-04-18T01:42:10.054Z,96983.38
2023-04-18T01:44:38.769Z,96988.75
2023-04-18T01:47:05.265Z,96988.97
2023-04-18T01:49:31.699Z,96990.03
2023-04-18T01:54:38.417Z,96991.31
2023-04-18T01:57:04.896Z,96992.22
2023-04-18T01:59:31.226Z,96996.75
2023-04-18T02:01:57.702Z,96995.13
2023-04-18T02:04:24.254Z,96999.06
2023-04-18T02:06:50.822Z,96995.53
2023-04-18T02:09:21.808Z,96990.38
2023-04-18T02:11:48.308Z,96997.25
2023-04-18T02:14:14.945Z,96992.47
2023-04-18T02:19:30.982Z,97002.25
2023-04-18T02:21:57.342Z,96996.84
2023-04-18T02:24:23.699Z,97008.03
2023-04-18T02:26:50.113Z,97005.16
2023-04-18T02:29:16.523Z,97006.19
2023-04-18T02:31:43.002Z,97009.13
2023-04-18T02:34:09.535Z,97014.13
2023-04-18T02:36:36.029Z,97008.75
2023-04-18T02:39:02.505Z,97019.28
2023-04-18T02:41:28.931Z,97011.00
2023-04-18T02:43:55.374Z,97009.78
2023-04-18T02:46:21.854Z,97015.16
2023-04-18T02:48:48.454Z,97019.06
2023-04-18T02:51:14.970Z,97024.28
2023-04-18T02:53:41.393Z,97023.91
2023-04-18T02:56:07.861Z,97027.84
2023-04-18T02:58:34.327Z,97032.34
2023-04-18T03:01:00.834Z,97026.88
2023-04-18T03:03:27.336Z,97029.31
2023-04-18T03:05:53.888Z,97027.63
2023-04-18T03:08:20.416Z,97027.59
2023-04-18T03:10:46.894Z,97032.53
2023-04-18T03:13:13.372Z,97025.06
2023-04-18T03:15:39.894Z,97027.53
2023-04-18T03:18:06.548Z,97027.75
2023-04-18T03:20:33.064Z,97029.44
2023-04-18T03:22:59.581Z,97028.22
2023-04-18T03:25:26.065Z,97030.53
2023-04-18T03:27:52.507Z,97033.25
2023-04-18T03:30:19.104Z,97026.44
2023-04-18T03:32:45.701Z,97031.22
2023-04-18T03:35:12.244Z,97036.59
2023-04-18T03:37:38.736Z,97033.09
2023-04-18T03:40:05.222Z,97035.34
2023-04-18T03:42:32.090Z,97025.41
2023-04-18T03:44:58.586Z,97027.06
2023-04-18T03:47:25.230Z,97021.03
2023-04-18T03:49:51.733Z,97025.44
2023-04-18T03:52:18.289Z,97030.22
2023-04-18T03:54:44.827Z,97027.97
2023-04-18T03:57:11.444Z,97036.25
2023-04-18T03:59:37.915Z,97030.88
2023-04-18T04:02:04.551Z,97039.75
2023-04-18T04:04:31.269Z,97030.66
2023-04-18T04:06:57.738Z,97035.81
2023-04-18T04:09:24.347Z,97031.66
2023-04-18T04:11:50.790Z,97029.56
2023-04-18T04:14:17.260Z,97034.94
2023-04-18T04:16:43.763Z,97030.03
2023-04-18T04:19:10.264Z,97036.03
2023-04-18T04:21:36.683Z,97041.81
2023-04-18T04:24:03.166Z,97032.91
2023-04-18T04:26:29.694Z,97039.31
2023-04-18T04:28:56.228Z,97040.16
2023-04-18T04:31:22.728Z,97046.16
2023-04-18T04:33:49.220Z,97046.56
2023-04-18T04:36:17.981Z,97044.91
2023-04-18T04:38:45.092Z,97042.44
2023-04-18T04:41:11.532Z,97051.94
2023-04-18T04:43:38.017Z,97058.75
2023-04-18T04:46:04.722Z,97049.63
2023-04-18T04:48:31.283Z,97056.06
2023-04-18T04:50:57.748Z,97059.81
2023-04-18T04:53:24.267Z,97050.66
2023-04-18T04:55:51.800Z,97053.13
2023-04-18T04:58:18.250Z,97055.03
2023-04-18T05:00:44.686Z,97055.63
2023-04-18T05:03:11.344Z,97058.31
2023-04-18T05:05:38.067Z,97061.00
2023-04-18T05:08:04.553Z,97068.06
2023-04-18T05:10:31.028Z,97068.91
2023-04-18T05:12:57.569Z,97070.75
2023-04-18T05:15:24.089Z,97067.03
2023-04-18T05:17:50.746Z,97071.97
2023-04-18T05:20:17.395Z,97070.09
2023-04-18T05:22:44.837Z,97071.53
2023-04-18T05:25:11.301Z,97062.41
2023-04-18T05:27:37.765Z,97069.25
2023-04-18T05:30:04.239Z,97065.31
2023-04-18T05:32:30.834Z,97067.34
2023-04-18T05:34:57.354Z,97066.94
2023-04-18T05:37:23.873Z,97057.16
2023-04-18T05:39:50.280Z,97062.09
2023-04-18T05:42:16.727Z,97065.66
2023-04-18T05:44:43.197Z,97067.69
2023-04-18T05:49:49.996Z,97069.13
2023-04-18T05:52:16.526Z,97072.41
2023-04-18T05:54:42.994Z,97067.44
2023-04-18T05:57:09.464Z,97071.16
2023-04-18T05:59:35.973Z,97073.03
2023-04-18T06:02:02.641Z,97072.41
2023-04-18T06:04:29.330Z,97075.97
2023-04-18T06:06:55.926Z,97082.16
2023-04-18T06:09:22.446Z,97080.50
2023-04-18T06:11:48.865Z,97081.56
2023-04-18T06:14:15.572Z,97085.06
2023-04-18T06:16:42.369Z,97089.66
2023-04-18T06:19:08.766Z,97092.53
2023-04-18T06:21:35.366Z,97089.25
2023-04-18T06:24:02.863Z,97094.84
2023-04-18T06:26:29.374Z,97086.34
2023-04-18T06:28:55.781Z,97096.00
2023-04-18T06:31:23.568Z,97086.44
2023-04-18T06:33:50.274Z,97095.41
2023-04-18T06:36:16.669Z,97093.06
2023-04-18T06:38:43.935Z,97098.22
2023-04-18T06:41:10.482Z,97093.41
2023-04-18T06:43:36.857Z,97096.94
2023-04-18T06:46:10.336Z,97094.72
2023-04-18T06:48:36.842Z,97100.88
2023-04-18T06:51:03.379Z,97109.19
2023-04-18T06:53:29.766Z,97103.94
2023-04-18T06:55:56.229Z,97101.47
2023-04-18T06:58:22.626Z,97110.22
2023-04-18T07:00:56.914Z,97105.50
2023-04-18T07:03:23.448Z,97113.72
2023-04-18T07:05:49.950Z,97117.66
2023-04-18T07:10:56.692Z,97110.31
2023-04-18T07:13:23.142Z,97105.72
2023-04-18T07:15:49.710Z,97110.31
2023-04-18T07:18:23.351Z,97113.78
2023-04-18T07:20:57.000Z,97110.50
2023-04-18T07:23:23.481Z,97108.00
2023-04-18T07:25:49.979Z,97106.19
2023-04-18T07:28:16.435Z,97102.38
2023-04-18T07:30:42.885Z,97103.38
2023-04-18T07:36:00.164Z,97103.81
2023-04-18T07:38:26.776Z,97107.31
2023-04-18T07:40:53.240Z,97104.41
2023-04-18T07:43:20.868Z,97103.72
2023-04-18T07:45:47.427Z,97091.81
2023-04-18T07:48:13.881Z,97106.09
2023-04-18T07:50:40.710Z,97100.09
2023-04-18T07:53:07.124Z,97101.13
2023-04-18T07:55:33.487Z,97105.94
2023-04-18T07:57:59.999Z,97102.47
2023-04-18T08:00:26.690Z,97105.75
2023-04-18T08:02:53.299Z,97109.19
2023-04-18T08:05:19.905Z,97103.13
2023-04-18T08:07:46.379Z,97109.53
2023-04-18T08:10:13.901Z,97105.81
2023-04-18T08:12:40.360Z,97106.22
2023-04-18T08:15:06.902Z,97104.38
2023-04-18T08:17:33.690Z,97100.44
2023-04-18T08:20:00.175Z,97098.41
2023-04-18T08:22:27.006Z,97101.06
2023-04-18T08:27:23.860Z,97098.97
2023-04-18T08:29:50.288Z,97102.13
2023-04-18T08:32:16.777Z,97096.72
2023-04-18T08:34:43.159Z,97101.25
2023-04-18T08:37:09.713Z,97099.63
2023-04-18T08:39:36.150Z,97094.88
2023-04-18T08:42:05.644Z,97093.88
2023-04-18T08:44:33.129Z,97095.31
2023-04-18T08:46:59.742Z,97097.84
2023-04-18T08:49:26.196Z,97095.72
2023-04-18T08:51:52.623Z,97096.50
2023-04-18T08:54:19.067Z,97092.25
2023-04-18T08:56:45.475Z,97087.75
2023-04-18T08:59:12.002Z,97086.25
2023-04-18T09:01:38.665Z,97077.22
2023-04-18T09:04:05.140Z,97082.13
2023-04-18T09:06:31.587Z,97086.75
2023-04-18T09:08:58.099Z,97072.63
2023-04-18T09:11:24.513Z,97078.69
2023-04-18T09:13:52.483Z,97069.78
2023-04-18T09:16:18.876Z,97064.88
2023-04-18T09:18:45.283Z,97072.16
2023-04-18T09:21:11.671Z,97067.78
2023-04-18T09:23:38.042Z,97076.44
2023-04-18T09:26:04.475Z,97065.22
2023-04-18T09:28:30.951Z,97070.03
2023-04-18T09:30:57.438Z,97058.03
2023-04-18T09:33:23.927Z,97062.75
2023-04-18T09:35:50.309Z,97063.78
2023-04-18T09:38:16.850Z,97066.31
2023-04-18T09:40:43.304Z,97059.69
2023-04-18T09:43:09.716Z,97062.97
2023-04-18T09:45:36.164Z,97069.63
2023-04-18T09:48:02.652Z,97062.16
2023-04-18T09:50:29.035Z,97066.97
2023-04-18T09:52:55.399Z,97062.38
2023-04-18T09:55:21.781Z,97071.50
2023-04-18T09:57:48.180Z,97062.25
2023-04-18T10:00:14.620Z,97067.25
2023-04-18T10:02:41.042Z,97066.31
2023-04-18T10:05:09.513Z,97058.41
2023-04-18T10:07:36.036Z,97066.94
2023-04-18T10:10:02.437Z,97068.41
2023-04-18T10:12:28.858Z,97065.19
2023-04-18T10:14:55.311Z,97068.69
2023-04-18T10:17:21.962Z,97067.47
2023-04-18T10:19:48.580Z,97062.19
2023-04-18T10:22:14.999Z,97059.63
2023-04-18T10:24:41.476Z,97067.91
2023-04-18T10:27:07.929Z,97063.13
2023-04-18T10:29:34.306Z,97061.22
2023-04-18T10:32:00.723Z,97056.03
2023-04-18T10:34:27.258Z,97060.41
2023-04-18T10:36:53.733Z,97056.91
2023-04-18T10:39:20.249Z,97054.16
2023-04-18T10:41:47.921Z,97055.81
2023-04-18T10:44:15.614Z,97056.22
2023-04-18T10:46:42.476Z,97045.59
2023-04-18T10:49:08.898Z,97046.25
2023-04-18T10:51:35.293Z,97044.13
2023-04-18T10:54:01.759Z,97043.91
2023-04-18T10:56:28.322Z,97043.25
2023-04-18T10:58:55.135Z,97033.75
2023-04-18T11:01:23.077Z,97041.16
2023-04-18T11:03:49.566Z,97040.81
2023-04-18T11:06:15.991Z,97034.41
2023-04-18T11:08:42.682Z,97034.75
2023-04-18T11:11:09.091Z,97041.09
2023-04-18T11:13:35.533Z,97027.97
2023-04-18T11:16:02.012Z,97030.00
2023-04-18T11:18:28.419Z,97025.78
2023-04-18T11:20:54.889Z,97026.22
2023-04-18T11:23:21.368Z,97027.53
2023-04-18T11:25:53.925Z,97023.25
2023-04-18T11:28:20.310Z,97029.69
2023-04-18T11:30:46.751Z,97023.84
2023-04-18T11:33:13.295Z,97025.09
2023-04-18T11:35:41.133Z,97019.97
2023-04-18T11:38:07.665Z,97018.00
2023-04-18T11:40:34.234Z,97023.47
2023-04-18T11:43:00.691Z,97015.13
2023-04-18T11:45:28.420Z,97019.84
2023-04-18T11:47:54.877Z,97017.50
2023-04-18T11:50:21.496Z,97018.72
2023-04-18T11:52:49.134Z,97010.03
2023-04-18T11:55:15.662Z,97009.09
2023-04-18T11:57:42.244Z,97022.44
2023-04-18T12:00:08.807Z,97018.75
2023-04-18T12:02:35.467Z,97015.94
2023-04-18T12:05:02.240Z,97018.72
2023-04-18T12:07:29.071Z,97021.47
2023-04-18T12:09:55.479Z,97018.84
2023-04-18T12:12:23.524Z,97012.34
2023-04-18T12:14:49.966Z,97018.19
2023-04-18T12:17:16.462Z,97011.81
2023-04-18T12:19:42.931Z,97007.38
2023-04-18T12:22:09.463Z,97005.34
2023-04-18T12:24:35.928Z,97004.25
2023-04-18T12:27:02.512Z,96997.41
2023-04-18T12:29:29.129Z,96994.47
2023-04-18T12:31:55.734Z,96992.97
2023-04-18T12:34:22.159Z,96998.69
2023-04-18T12:36:48.613Z,96996.94
2023-04-18T12:39:15.088Z,97000.13
2023-04-18T12:41:41.660Z,96993.53
2023-04-18T12:44:08.058Z,96995.91
2023-04-18T12:46:34.551Z,96988.97
2023-04-18T12:49:00.976Z,96984.06
2023-04-18T12:51:27.392Z,96978.53
2023-04-18T12:53:53.905Z,96978.78
2023-04-18T12:56:20.298Z,96972.66
2023-04-18T12:58:46.727Z,96978.06
2023-04-18T13:01:14.543Z,96983.81
2023-04-18T13:03:41.159Z,96977.78
2023-04-18T13:06:07.764Z,96978.16
2023-04-18T13:08:34.252Z,96983.06
2023-04-18T13:11:00.685Z,96986.94
2023-04-18T13:13:27.137Z,96985.50
2023-04-18T13:15:53.662Z,96985.28
2023-04-18T13:18:20.150Z,96984.47
2023-04-18T13:20:46.560Z,96994.16
2023-04-18T13:23:12.997Z,96981.34
2023-04-18T13:25:39.374Z,96979.94
2023-04-18T13:28:05.804Z,96978.28
2023-04-18T13:30:33.444Z,96977.56
2023-04-18T13:32:59.916Z,96984.38
2023-04-18T13:35:26.336Z,96985.00
2023-04-18T13:37:52.711Z,96987.97
2023-04-18T13:40:19.080Z,96994.16
2023-04-18T13:42:45.465Z,96992.41
2023-04-18T13:45:11.864Z,96987.84
2023-04-18T13:47:38.365Z,96989.50
2023-04-18T13:50:04.818Z,96982.19
2023-04-18T13:52:31.424Z,96981.47
2023-04-18T13:54:57.929Z,96976.75
2023-04-18T13:57:24.350Z,96976.88
2023-04-18T13:59:52.753Z,96967.53
2023-04-18T14:02:19.254Z,96966.09
2023-04-18T14:04:45.974Z,96968.13
2023-04-18T14:07:12.386Z,96966.47
2023-04-18T14:09:38.785Z,96966.47
2023-04-18T14:12:05.234Z,96966.09
2023-04-18T14:14:31.754Z,96960.19
2023-04-18T14:16:58.286Z,96973.25
2023-04-18T14:19:24.798Z,96961.94
2023-04-18T14:21:51.340Z,96967.59
2023-04-18T14:24:17.785Z,96949.31
2023-04-18T14:26:44.489Z,96954.25
2023-04-18T14:29:10.864Z,96948.69
2023-04-18T14:31:37.279Z,96948.94
2023-04-18T14:34:04.029Z,96953.34
2023-04-18T14:36:30.769Z,96953.28
2023-04-18T14:38:59.950Z,96956.16
2023-04-18T14:41:28.802Z,96954.13
2023-04-18T14:43:55.472Z,96955.56
2023-04-18T14:46:22.843Z,96952.03
2023-04-18T14:48:52.026Z,96938.81
2023-04-18T14:51:18.569Z,96951.97
2023-04-18T14:53:45.010Z,96956.25
2023-04-18T14:56:11.523Z,96959.84
2023-04-18T14:58:37.898Z,96967.31
2023-04-18T15:01:04.297Z,96968.88
2023-04-18T15:03:31.089Z,96958.22
2023-04-18T15:05:57.722Z,96954.84
2023-04-18T15:08:24.123Z,96959.31
2023-04-18T15:10:50.594Z,96959.56
2023-04-18T15:13:17.016Z,96959.66
2023-04-18T15:15:43.524Z,96954.72
2023-04-18T15:18:09.916Z,96952.22
2023-04-18T15:20:36.462Z,96954.69
2023-04-18T15:23:02.821Z,96948.75
2023-04-18T15:25:29.236Z,96941.25
2023-04-18T15:27:55.666Z,96947.31
2023-04-18T15:30:22.160Z,96944.41
2023-04-18T15:32:48.752Z,96943.06
2023-04-18T15:35:17.324Z,96931.63
2023-04-18T15:37:43.684Z,96944.22
2023-04-18T15:40:10.183Z,96936.50
2023-04-18T15:42:36.563Z,96934.91
2023-04-18T15:45:02.954Z,96937.00
2023-04-18T15:47:29.426Z,96932.06
2023-04-18T15:49:55.825Z,96939.22
2023-04-18T15:52:22.284Z,96938.19
2023-04-18T15:54:49.962Z,96928.56
2023-04-18T15:57:16.354Z,96929.97
2023-04-18T15:59:42.782Z,96927.25
2023-04-18T16:02:09.262Z,96924.28
2023-04-18T16:04:35.690Z,96925.03
2023-04-18T16:07:02.159Z,96927.66
2023-04-18T16:09:28.562Z,96928.75
2023-04-18T16:11:54.972Z,96931.69
2023-04-18T16:14:21.369Z,96931.88
2023-04-18T16:16:47.795Z,96929.28
2023-04-18T16:19:14.161Z,96917.44
2023-04-18T16:21:40.533Z,96916.59
2023-04-18T16:24:06.898Z,96917.63
2023-04-18T16:26:33.243Z,96923.19
2023-04-18T16:28:59.573Z,96926.13
2023-04-18T16:31:26.075Z,96926.84
2023-04-18T16:33:52.809Z,96928.56
2023-04-18T16:36:19.414Z,96927.28
2023-04-18T16:38:47.399Z,96927.06
2023-04-18T16:41:13.781Z,96929.16
2023-04-18T16:43:40.123Z,96926.59
2023-04-18T16:46:06.593Z,96932.34
2023-04-18T16:48:33.144Z,96927.41
2023-04-18T16:50:59.566Z,96922.31
2023-04-18T16:53:25.998Z,96931.28
2023-04-18T16:55:52.401Z,96933.63
2023-04-18T16:58:32.227Z,96930.63
2023-04-18T17:00:58.575Z,96932.59
2023-04-18T17:03:25.297Z,96936.34
2023-04-18T17:05:51.889Z,96937.81
2023-04-18T17:08:18.242Z,96937.91
2023-04-18T17:10:44.643Z,96935.69
2023-04-18T17:13:11.094Z,96931.88
2023-04-18T17:15:37.617Z,96928.34
2023-04-18T17:18:04.108Z,96927.78
2023-04-18T17:20:30.533Z,96934.34
2023-04-18T17:22:57.159Z,96937.88
2023-04-18T17:25:23.559Z,96939.22
2023-04-18T17:27:49.969Z,96941.13
2023-04-18T17:30:16.437Z,96940.56
2023-04-18T17:32:43.013Z,96947.66
2023-04-18T17:35:09.495Z,96951.47
2023-04-18T17:37:35.898Z,96955.00
2023-04-18T17:40:02.306Z,96945.47
2023-04-18T17:42:28.721Z,96953.59
2023-04-18T17:44:55.136Z,96949.22
2023-04-18T17:47:21.513Z,96961.75
2023-04-18T17:49:48.054Z,96967.16
2023-04-18T17:52:16.367Z,96958.44
2023-04-18T17:54:42.760Z,96966.34
2023-04-18T17:57:09.175Z,96970.97
2023-04-18T17:59:35.626Z,96968.78
2023-04-18T18:02:02.101Z,96971.47
2023-04-18T18:04:28.684Z,96974.13
2023-04-18T18:06:55.105Z,96975.13
2023-04-18T18:09:21.754Z,96977.47
2023-04-18T18:11:48.957Z,96972.47
2023-04-18T18:14:15.338Z,96979.19
2023-04-18T18:16:41.904Z,96984.25
2023-04-18T18:19:08.414Z,96985.56
2023-04-18T18:21:34.973Z,96985.22
2023-04-18T18:24:01.435Z,96991.69
2023-04-18T18:26:27.893Z,96992.16
2023-04-18T18:28:56.380Z,96988.22
2023-04-18T18:31:22.861Z,96997.69
2023-04-18T18:33:50.386Z,96996.56
2023-04-18T18:36:17.876Z,97002.47
2023-04-18T18:38:44.322Z,97001.59
2023-04-18T18:41:10.736Z,97004.25
2023-04-18T18:43:39.228Z,97001.13
2023-04-18T18:46:05.686Z,97001.56
2023-04-18T18:48:32.158Z,97005.31
2023-04-18T18:50:58.634Z,97007.06
2023-04-18T18:53:25.090Z,97008.31
2023-04-18T18:55:51.597Z,97011.53
2023-04-18T18:58:18.031Z,97022.91
2023-04-18T19:00:44.775Z,97021.78
2023-04-18T19:03:13.986Z,97028.53
2023-04-18T19:05:40.509Z,97029.28
2023-04-18T19:08:06.972Z,97030.84
2023-04-18T19:10:36.637Z,97031.03
2023-04-18T19:13:03.156Z,97032.03
2023-04-18T19:15:29.641Z,97034.13
2023-04-18T19:17:56.167Z,97035.94
2023-04-18T19:20:22.535Z,97034.44
2023-04-18T19:22:48.989Z,97043.09
2023-04-18T19:25:15.432Z,97047.88
2023-04-18T19:27:42.975Z,97048.38
2023-04-18T19:30:13.698Z,97047.81
2023-04-18T19:32:40.131Z,97047.22
2023-04-18T19:35:08.642Z,97053.63
2023-04-18T19:37:35.152Z,97046.06
2023-04-18T19:40:01.687Z,97052.88
2023-04-18T19:42:32.427Z,97052.09
2023-04-18T19:44:58.960Z,97060.22
2023-04-18T19:47:25.478Z,97057.75
2023-04-18T19:49:51.913Z,97058.81
2023-04-18T19:52:19.305Z,97060.47
2023-04-18T19:54:45.770Z,97062.69
2023-04-18T19:57:12.199Z,97066.97
2023-04-18T19:59:38.596Z,97059.56
2023-04-18T20:02:06.463Z,97057.25
2023-04-18T20:04:33.348Z,97069.78
2023-04-18T20:06:59.909Z,97071.69
2023-04-18T20:09:26.321Z,97071.59
2023-04-18T20:11:52.829Z,97075.63
2023-04-18T20:14:19.247Z,97071.84
2023-04-18T20:16:47.093Z,97070.22
2023-04-18T20:19:13.878Z,97067.72
2023-04-18T20:21:44.866Z,97076.59
2023-04-18T20:24:12.372Z,97069.19
2023-04-18T20:26:38.859Z,97081.84
2023-04-18T20:29:05.568Z,97080.69
2023-04-18T20:31:32.124Z,97086.25
2023-04-18T20:33:58.523Z,97086.72
2023-04-18T20:36:25.774Z,97088.03
2023-04-18T20:39:03.056Z,97100.22
2023-04-18T20:41:29.538Z,97097.50
2023-04-18T20:43:56.102Z,97100.78
2023-04-18T20:46:23.517Z,97099.13
2023-04-18T20:48:50.025Z,97097.25
2023-04-18T20:51:16.828Z,97102.44
2023-04-18T20:53:43.295Z,97099.59
2023-04-18T20:56:09.815Z,97103.06
2023-04-18T20:58:38.984Z,97103.53
2023-04-18T21:01:06.578Z,97105.66
2023-04-18T21:03:34.220Z,97098.00
2023-04-18T21:06:01.502Z,97101.19
2023-04-18T21:08:30.547Z,97111.94
2023-04-18T21:10:56.909Z,97108.66
2023-04-18T21:13:25.069Z,97114.31
2023-04-18T21:15:53.675Z,97103.72
2023-04-18T21:18:20.134Z,97112.81
2023-04-18T21:20:46.508Z,97114.59
2023-04-18T21:23:12.941Z,97120.72
2023-04-18T21:25:41.681Z,97113.06
2023-04-18T21:28:08.109Z,97119.53
2023-04-18T21:30:39.899Z,97121.63
2023-04-18T21:33:14.244Z,97120.63
2023-04-18T21:35:40.642Z,97123.97
2023-04-18T21:38:07.162Z,97124.13
2023-04-18T21:40:33.608Z,97131.41
2023-04-18T21:43:00.136Z,97129.44
2023-04-18T21:45:26.761Z,97140.25
2023-04-18T21:47:53.302Z,97141.56
2023-04-18T21:50:19.693Z,97140.16
2023-04-18T21:52:47.484Z,97152.63
2023-04-18T21:55:14.072Z,97149.34
2023-04-18T21:57:40.533Z,97155.94
2023-04-18T22:00:09.250Z,97158.66
2023-04-18T22:02:36.961Z,97166.78
2023-04-18T22:05:03.800Z,97171.34
2023-04-18T22:07:30.315Z,97165.59
2023-04-18T22:09:57.055Z,97163.72
2023-04-18T22:12:23.743Z,97164.78
2023-04-18T22:14:51.066Z,97167.13
2023-04-18T22:17:17.641Z,97172.78
2023-04-18T22:19:44.084Z,97177.03
2023-04-18T22:22:10.651Z,97182.09
2023-04-18T22:24:37.083Z,97179.84
2023-04-18T22:27:03.443Z,97176.41
2023-04-18T22:29:29.866Z,97172.53
2023-04-18T22:32:01.910Z,97179.59
2023-04-18T22:34:28.392Z,97175.13
2023-04-18T22:36:54.909Z,97176.19
2023-04-18T22:39:21.507Z,97180.16
2023-04-18T22:41:47.991Z,97176.88
2023-04-18T22:44:23.108Z,97184.06
2023-04-18T22:46:49.588Z,97181.44
2023-04-18T22:49:21.076Z,97178.38
2023-04-18T22:51:47.576Z,97185.91
2023-04-18T22:54:14.216Z,97182.97
2023-04-18T22:59:21.304Z,97180.09
2023-04-18T23:01:47.890Z,97185.19
2023-04-18T23:04:14.792Z,97179.75
2023-04-18T23:06:41.545Z,97191.28
2023-04-18T23:09:08.144Z,97197.03
2023-04-18T23:11:39.293Z,97194.56
2023-04-18T23:14:07.989Z,97198.31
2023-04-18T23:16:34.439Z,97197.25
2023-04-18T23:19:00.958Z,97199.97
2023-04-18T23:21:27.470Z,97205.59
2023-04-18T23:23:53.933Z,97208.78
2023-04-18T23:26:20.426Z,97207.72
2023-04-18T23:28:47.005Z,97210.44
2023-04-18T23:31:13.656Z,97213.97
2023-04-18T23:33:40.150Z,97217.13
2023-04-18T23:36:06.740Z,97206.72
2023-04-18T23:38:33.140Z,97209.88
2023-04-18T23:40:59.484Z,97212.81
2023-04-18T23:43:25.922Z,97211.41
2023-04-18T23:45:52.388Z,97214.13
2023-04-18T23:48:18.862Z,97218.22
2023-04-18T23:50:45.381Z,97215.41
2023-04-18T23:53:11.858Z,97217.25
2023-04-18T23:55:38.274Z,97220.31
2023-04-18T23:58:04.685Z,97217.38
